Time;durP1;ratioP1;P1;durP2;ratioP2;P2;SDS_P1;SDS_P2;PMS_P1;PMS_P2;Temp;Humidity;BMP_temperature;BMP_pressure;BME280_temperature;BME280_humidity;BME280_pressure;Samples;Min_cycle;Max_cycle;Signal;HPM_P1;HPM_P2
2023/02/02 00:00:47;;;;;;;8.30;4.63;;;;;;;6.42;77.05;97433.38;5077588;28;20020;-83
2023/02/02 00:03:13;;;;;;;8.43;3.78;;;;;;;6.44;75.83;97420.88;5042806;28;20113;-83
2023/02/02 00:05:50;;;;;;;5.53;2.80;;;;;;;6.45;74.52;97422.59;5058727;28;20031;-83
2023/02/02 00:08:16;;;;;;;6.93;3.08;;;;;;;6.44;75.54;97426.19;5049613;28;20184;-81
2023/02/02 00:10:42;;;;;;;9.05;3.33;;;;;;;6.43;78.02;97429.75;5045469;28;20452;-82
2023/02/02 00:13:08;;;;;;;8.48;3.55;;;;;;;6.35;83.20;97448.72;5053920;28;20044;-84
2023/02/02 00:15:34;;;;;;;10.07;4.25;;;;;;;6.22;82.44;97439.59;5038790;28;20488;-83
2023/02/02 00:17:59;;;;;;;6.97;3.50;;;;;;;6.06;83.34;97435.09;5063433;28;20044;-83
2023/02/02 00:20:25;;;;;;;10.02;4.32;;;;;;;5.99;84.22;97445.13;5054775;28;20565;-82
2023/02/02 00:22:50;;;;;;;11.13;4.68;;;;;;;5.85;85.84;97437.78;5049904;28;20042;-83
2023/02/02 00:25:16;;;;;;;8.07;4.07;;;;;;;5.75;87.46;97435.59;5055458;28;20024;-83
2023/02/02 00:27:41;;;;;;;6.18;4.03;;;;;;;5.60;89.66;97436.25;5049832;28;20075;-83
2023/02/02 00:30:09;;;;;;;6.38;3.47;;;;;;;5.53;90.36;97422.41;5056857;28;20028;-83
2023/02/02 00:32:34;;;;;;;6.75;3.63;;;;;;;5.42;91.52;97422.84;5056012;28;20031;-81
2023/02/02 00:35:00;;;;;;;5.45;2.90;;;;;;;5.33;92.49;97411.78;5073655;28;20032;-84
2023/02/02 00:37:25;;;;;;;6.20;3.60;;;;;;;5.24;94.47;97420.13;5047878;28;20039;-83
2023/02/02 00:39:51;;;;;;;8.75;3.53;;;;;;;5.20;94.76;97422.06;5050827;28;20028;-83
2023/02/02 00:42:16;;;;;;;6.20;3.35;;;;;;;5.16;95.41;97424.91;5072162;28;20052;-83
2023/02/02 00:47:26;;;;;;;10.55;4.63;;;;;;;5.03;97.37;97426.34;5065540;28;20106;-83
2023/02/02 00:49:52;;;;;;;15.77;5.00;;;;;;;5.01;97.36;97423.78;5048202;28;20036;-83
2023/02/02 00:52:17;;;;;;;8.32;4.20;;;;;;;5.02;96.70;97421.97;5042279;28;20060;-83
2023/02/02 00:54:43;;;;;;;8.15;4.15;;;;;;;4.90;97.49;97424.22;5037964;28;20029;-83
2023/02/02 00:57:12;;;;;;;6.07;3.65;;;;;;;4.95;96.78;97415.22;5036177;28;20068;-82
2023/02/02 00:59:37;;;;;;;6.10;3.15;;;;;;;4.88;96.49;97404.00;5041923;28;20028;-83
2023/02/02 01:02:03;;;;;;;5.63;2.80;;;;;;;4.92;95.25;97403.81;5043068;28;20060;-84
2023/02/02 01:04:29;;;;;;;4.43;2.85;;;;;;;5.03;94.08;97408.66;5071050;28;20421;-82
2023/02/02 01:06:54;;;;;;;8.00;3.60;;;;;;;5.02;93.71;97404.28;5069364;28;20052;-83
2023/02/02 01:09:20;;;;;;;8.65;3.40;;;;;;;5.10;92.78;97409.28;5051310;28;20404;-83
2023/02/02 01:11:45;;;;;;;8.75;3.97;;;;;;;5.08;93.00;97403.16;5054106;28;20024;-83
2023/02/02 01:14:11;;;;;;;7.13;3.40;;;;;;;5.01;93.48;97404.38;5039081;28;20040;-83
2023/02/02 01:16:36;;;;;;;6.63;2.97;;;;;;;5.02;92.63;97401.63;5061816;28;20110;-82
2023/02/02 01:19:02;;;;;;;9.70;3.83;;;;;;;5.08;92.62;97405.81;5046428;28;20025;-83
2023/02/02 01:21:27;;;;;;;4.88;2.85;;;;;;;5.06;92.15;97397.94;5057619;28;20017;-85
2023/02/02 01:23:53;;;;;;;4.57;2.70;;;;;;;5.15;91.69;97404.63;5047495;28;20025;-83
2023/02/02 01:26:18;;;;;;;5.65;3.20;;;;;;;5.14;91.43;97397.59;5055138;28;20020;-83
2023/02/02 01:28:44;;;;;;;6.18;3.05;;;;;;;5.14;91.48;97394.94;5053510;28;20029;-82
2023/02/02 01:31:12;;;;;;;4.35;2.35;;;;;;;5.14;92.11;97389.63;5063028;28;20491;-83
2023/02/02 01:33:38;;;;;;;6.65;3.00;;;;;;;5.18;91.45;97389.47;5045620;28;20020;-83
2023/02/02 01:36:07;;;;;;;10.45;2.63;;;;;;;5.16;91.28;97383.38;5049525;28;20039;-83
2023/02/02 01:38:33;;;;;;;5.13;2.47;;;;;;;5.18;90.60;97385.94;5055266;28;20031;-83
2023/02/02 01:40:59;;;;;;;3.47;2.28;;;;;;;5.16;89.86;97382.50;5051795;28;20029;-84
2023/02/02 01:43:27;;;;;;;5.80;2.72;;;;;;;5.22;89.93;97387.53;5047074;28;20043;-83
2023/02/02 01:45:55;;;;;;;5.40;2.75;;;;;;;5.20;89.46;97374.34;5039773;28;20025;-83
2023/02/02 01:48:23;;;;;;;5.45;2.80;;;;;;;5.29;88.73;97381.06;5063649;28;20495;-83
2023/02/02 01:50:52;;;;;;;5.55;2.80;;;;;;;5.28;88.43;97381.97;5048355;28;20021;-83
2023/02/02 01:53:19;;;;;;;4.90;2.40;;;;;;;5.21;88.39;97380.50;5052042;28;20060;-84
2023/02/02 01:55:46;;;;;;;4.60;2.40;;;;;;;5.23;87.79;97373.38;5039715;28;20020;-84
2023/02/02 01:58:17;;;;;;;5.63;2.10;;;;;;;5.34;86.90;97381.69;5053410;28;20037;-82
2023/02/02 02:00:43;;;;;;;7.40;2.80;;;;;;;5.31;87.33;97376.53;5046790;28;20408;-83
2023/02/02 02:03:12;;;;;;;5.00;2.70;;;;;;;5.28;87.80;97389.91;5063470;28;20093;-82
2023/02/02 02:05:42;;;;;;;10.25;4.32;;;;;;;5.28;87.30;97395.22;5070958;28;20021;-83
2023/02/02 02:08:19;;;;;;;9.32;4.25;;;;;;;5.18;87.92;97386.81;5036129;28;20476;-81
2023/02/02 02:10:45;;;;;;;8.60;3.78;;;;;;;5.25;87.63;97393.56;5036573;28;20035;-82
2023/02/02 02:13:11;;;;;;;8.48;3.70;;;;;;;5.25;87.76;97390.91;5047181;28;20028;-83
2023/02/02 02:18:44;;;;;;;6.88;3.00;;;;;;;5.28;87.62;97400.53;5060921;28;20055;-83
2023/02/02 02:27:25;;;;;;;7.97;3.60;;;;;;;5.26;87.36;97389.97;5049337;28;19924;-84
2023/02/02 02:29:53;;;;;;;11.30;5.45;;;;;;;5.25;87.72;97392.72;5061753;28;20044;-84
2023/02/02 02:32:37;;;;;;;8.90;3.72;;;;;;;5.26;87.41;97389.13;5071417;28;20024;-83
2023/02/02 02:35:18;;;;;;;7.80;3.63;;;;;;;5.30;87.04;97396.88;5051512;28;20139;-83
2023/02/02 02:38:04;;;;;;;9.63;4.03;;;;;;;5.25;87.55;97390.91;5059948;28;20046;-83
2023/02/02 02:40:40;;;;;;;9.60;3.85;;;;;;;5.21;89.08;97399.06;5071251;28;20028;-84
2023/02/02 02:43:14;;;;;;;9.48;4.30;;;;;;;5.12;88.87;97388.84;5042520;28;20021;-82
2023/02/02 02:45:40;;;;;;;9.25;3.88;;;;;;;5.11;88.87;97390.63;5034740;28;20037;-83
2023/02/02 02:48:09;;;;;;;7.13;4.03;;;;;;;5.16;88.20;97385.16;5041887;28;20106;-84
2023/02/02 02:50:34;;;;;;;6.90;3.42;;;;;;;5.12;87.95;97383.56;5051317;28;20028;-83
2023/02/02 02:53:18;;;;;;;8.07;3.70;;;;;;;5.09;89.21;97391.63;5058132;28;20484;-84
2023/02/02 02:55:49;;;;;;;8.63;4.63;;;;;;;4.96;90.08;97390.41;5045577;28;20031;-83
2023/02/02 02:58:26;;;;;;;11.73;5.07;;;;;;;5.02;90.28;97401.63;5046855;28;20082;-82
2023/02/02 03:00:57;;;;;;;7.80;3.63;;;;;;;5.04;88.96;97389.19;5065008;28;20165;-84
2023/02/02 03:03:46;;;;;;;8.65;4.50;;;;;;;5.04;88.63;97391.84;5056484;28;20051;-78
2023/02/02 03:06:43;;;;;;;7.35;3.80;;;;;;;5.06;88.62;97392.63;5062500;28;20483;-78
2023/02/02 03:09:17;;;;;;;8.38;3.90;;;;;;;5.03;88.47;97386.59;5055085;28;20040;-77
2023/02/02 03:11:43;;;;;;;8.63;3.90;;;;;;;5.05;88.17;97382.09;5036995;28;20198;-77
2023/02/02 03:14:08;;;;;;;6.88;2.88;;;;;;;5.11;87.09;97385.34;5055853;28;20099;-78
2023/02/02 03:16:37;;;;;;;6.10;3.38;;;;;;;5.10;86.93;97385.41;5046490;28;20545;-76
2023/02/02 03:19:03;;;;;;;10.30;4.85;;;;;;;5.09;86.75;97384.56;5033400;28;20385;-80
2023/02/02 03:21:30;;;;;;;11.38;5.25;;;;;;;5.05;87.06;97392.69;5044620;28;20116;-80
2023/02/02 03:23:56;;;;;;;9.90;4.60;;;;;;;5.02;86.78;97391.03;5069900;28;20033;-81
2023/02/02 03:26:21;;;;;;;12.32;4.25;;;;;;;5.09;84.71;97396.94;5054539;28;20033;-80
2023/02/02 03:28:48;;;;;;;6.85;4.00;;;;;;;5.14;83.81;97373.72;5033141;28;20029;-80
2023/02/02 03:31:14;;;;;;;6.78;3.92;;;;;;;5.18;82.84;97364.72;5044977;28;20036;-80
2023/02/02 03:33:39;;;;;;;7.95;4.25;;;;;;;5.27;81.53;97364.31;5043839;28;20472;-81
2023/02/02 03:36:05;;;;;;;9.32;4.43;;;;;;;5.22;82.41;97361.03;5061591;28;20052;-81
2023/02/02 03:38:31;;;;;;;7.78;3.85;;;;;;;5.12;82.99;97372.94;5070158;28;20488;-80
2023/02/02 03:40:56;;;;;;;7.10;3.50;;;;;;;5.08;81.80;97361.59;5046873;28;20021;-79
2023/02/02 03:43:23;;;;;;;6.03;3.35;;;;;;;5.03;82.06;97360.97;5048228;28;20068;-80
2023/02/02 03:45:59;;;;;;;6.53;3.47;;;;;;;5.05;81.43;97372.34;5069610;28;20020;-79
2023/02/02 03:48:25;;;;;;;10.38;3.00;;;;;;;4.97;81.77;97365.66;5040140;28;20094;-79
2023/02/02 03:50:52;;;;;;;6.00;2.83;;;;;;;5.00;81.08;97360.22;5061670;28;20246;-79
2023/02/02 03:53:17;;;;;;;16.45;3.90;;;;;;;5.03;79.95;97354.78;5041238;28;20067;-81
2023/02/02 03:55:43;;;;;;;8.20;3.35;;;;;;;5.05;80.46;97351.16;5050491;28;20033;-82
2023/02/02 03:58:08;;;;;;;7.43;3.63;;;;;;;5.00;80.54;97354.94;5043081;28;20031;-81
2023/02/02 04:00:34;;;;;;;5.38;2.88;;;;;;;4.94;80.58;97350.75;5049435;28;20403;-81
2023/02/02 04:02:59;;;;;;;9.00;3.65;;;;;;;5.01;80.78;97357.53;5046611;28;20503;-81
2023/02/02 04:05:25;;;;;;;5.05;3.20;;;;;;;4.98;80.25;97356.78;5039882;28;20028;-82
2023/02/02 04:07:50;;;;;;;5.68;3.22;;;;;;;4.98;79.18;97359.44;5042565;28;20029;-80
2023/02/02 04:10:17;;;;;;;8.20;3.45;;;;;;;4.99;79.94;97366.44;5060130;28;20020;-80
2023/02/02 04:12:42;;;;;;;7.45;3.60;;;;;;;4.88;79.04;97341.28;5041707;28;20404;-80
2023/02/02 04:15:08;;;;;;;10.82;3.67;;;;;;;4.93;79.05;97362.28;5043342;28;20024;-79
2023/02/02 04:17:34;;;;;;;8.63;3.70;;;;;;;4.94;78.31;97356.06;5046150;28;20032;-81
2023/02/02 04:20:00;;;;;;;6.40;3.05;;;;;;;4.97;75.93;97358.56;5049983;28;20028;-80
2023/02/02 04:22:26;;;;;;;10.70;3.35;;;;;;;5.00;76.03;97354.94;5044860;28;20021;-80
2023/02/02 04:24:51;;;;;;;8.23;3.85;;;;;;;4.99;75.00;97348.75;5055329;28;20175;-81
2023/02/02 04:27:17;;;;;;;8.00;3.72;;;;;;;4.93;76.40;97363.13;5043008;28;20036;-79
2023/02/02 04:29:43;;;;;;;6.30;3.15;;;;;;;4.92;76.12;97358.75;5038418;28;20043;-80
2023/02/02 04:32:26;;;;;;;7.38;3.80;;;;;;;4.89;76.45;97358.06;5068601;28;20024;-81
2023/02/02 04:34:51;;;;;;;5.53;2.70;;;;;;;4.93;75.85;97371.09;5057576;28;20032;-80
2023/02/02 04:37:17;;;;;;;5.15;2.92;;;;;;;4.99;75.46;97367.31;5040999;28;20485;-80
2023/02/02 04:39:42;;;;;;;11.70;3.13;;;;;;;4.99;75.21;97372.59;5049485;28;20025;-81
2023/02/02 04:42:11;;;;;;;6.05;3.13;;;;;;;4.98;75.56;97376.22;5049165;28;20025;-81
2023/02/02 04:44:36;;;;;;;10.57;4.85;;;;;;;4.93;76.18;97373.75;5055309;28;20021;-81
2023/02/02 04:47:02;;;;;;;11.88;4.40;;;;;;;4.91;76.04;97370.31;5048251;28;20033;-81
2023/02/02 04:49:30;;;;;;;6.45;3.58;;;;;;;4.88;76.41;97373.09;5055552;28;20028;-80
2023/02/02 04:51:58;;;;;;;6.97;3.45;;;;;;;4.90;75.76;97367.69;5050462;28;20112;-79
2023/02/02 04:54:23;;;;;;;9.13;3.28;;;;;;;4.96;74.35;97362.13;5062175;28;20029;-83
2023/02/02 04:56:49;;;;;;;7.63;3.05;;;;;;;5.03;73.57;97366.25;5057383;28;20093;-81
2023/02/02 04:59:14;;;;;;;6.30;3.28;;;;;;;5.07;73.09;97380.25;5047687;28;20108;-84
2023/02/02 05:01:47;;;;;;;6.40;3.10;;;;;;;5.19;72.06;97371.75;5060356;28;20056;-84
2023/02/02 05:04:27;;;;;;;9.43;2.97;;;;;;;5.13;72.03;97369.38;5067199;28;20122;-83
2023/02/02 05:06:54;;;;;;;8.85;3.28;;;;;;;5.17;72.61;97369.16;5050691;28;20450;-81
2023/02/02 05:09:22;;;;;;;5.97;3.00;;;;;;;5.08;72.93;97358.97;5058707;28;20032;-84
2023/02/02 05:11:48;;;;;;;5.43;3.15;;;;;;;5.11;72.95;97380.03;5059900;28;20077;-83
2023/02/02 05:14:17;;;;;;;7.38;3.40;;;;;;;4.90;74.45;97365.91;5061476;28;20025;-84
2023/02/02 05:16:43;;;;;;;12.30;4.10;;;;;;;4.88;75.66;97391.63;5068280;28;20078;-84
2023/02/02 05:19:10;;;;;;;7.93;4.65;;;;;;;4.88;75.21;97381.03;5064608;28;20562;-82
2023/02/02 05:21:35;;;;;;;8.73;3.78;;;;;;;4.92;75.10;97382.59;5053122;28;20031;-84
2023/02/02 05:24:02;;;;;;;6.28;3.30;;;;;;;5.00;74.58;97382.28;5048473;28;20443;-85
2023/02/02 05:26:28;;;;;;;8.13;3.40;;;;;;;4.98;74.25;97378.00;5048910;28;20114;-85
2023/02/02 05:28:55;;;;;;;6.35;3.72;;;;;;;4.95;74.20;97376.34;5043770;28;20564;-81
2023/02/02 05:31:20;;;;;;;10.15;4.63;;;;;;;4.97;75.23;97381.56;5049102;28;20033;-74
2023/02/02 05:33:46;;;;;;;9.63;4.28;;;;;;;4.88;75.64;97388.13;5071925;28;20031;-80
2023/02/02 05:36:12;;;;;;;9.60;4.22;;;;;;;4.82;76.05;97396.31;5049531;28;20032;-82
2023/02/02 05:38:38;;;;;;;10.25;4.43;;;;;;;4.87;76.37;97402.28;5061247;28;20052;-81
2023/02/02 05:41:04;;;;;;;14.43;5.50;;;;;;;4.97;74.47;97392.16;5047153;28;20097;-83
2023/02/02 05:43:30;;;;;;;18.10;4.78;;;;;;;4.95;74.79;97404.63;5064016;28;20495;-80
2023/02/02 05:45:56;;;;;;;12.02;4.82;;;;;;;4.90;76.09;97408.31;5066771;28;20086;-81
2023/02/02 05:48:21;;;;;;;10.48;4.82;;;;;;;4.91;75.58;97404.75;5054254;28;20487;-82
2023/02/02 05:50:56;;;;;;;9.73;4.90;;;;;;;4.97;75.28;97408.06;5052163;28;20503;-74
2023/02/02 05:53:22;;;;;;;12.00;5.80;;;;;;;5.10;75.33;97425.19;5063465;28;20547;-74
2023/02/02 05:55:48;;;;;;;13.15;6.32;;;;;;;5.13;76.34;97415.31;5071206;28;20032;-72
2023/02/02 05:58:13;;;;;;;15.60;6.28;;;;;;;5.21;76.55;97423.78;5057281;28;20034;-76
2023/02/02 06:00:39;;;;;;;16.65;7.55;;;;;;;5.28;76.23;97424.41;5065757;28;20488;-75
2023/02/02 06:03:25;;;;;;;10.88;5.13;;;;;;;5.36;77.32;97422.25;5086772;28;20052;-76
2023/02/02 06:06:09;;;;;;;11.13;5.22;;;;;;;5.35;76.35;97412.59;5066131;28;20032;-74
2023/02/02 06:08:40;;;;;;;14.32;6.05;;;;;;;5.44;75.72;97418.34;5066074;28;20023;-74
2023/02/02 06:11:17;;;;;;;11.07;5.40;;;;;;;5.35;75.54;97389.56;5047303;28;20123;-74
2023/02/02 06:13:42;;;;;;;7.68;4.30;;;;;;;5.36;74.14;97390.44;5067576;28;20020;-74
2023/02/02 06:16:12;;;;;;;15.85;5.38;;;;;;;5.60;74.32;97412.38;5061618;28;20496;-74
2023/02/02 06:19:01;;;;;;;9.65;4.28;;;;;;;5.37;74.24;97370.94;5075055;28;20055;-80
2023/02/02 06:21:46;;;;;;;11.05;4.95;;;;;;;5.70;74.04;97406.59;5072889;28;20031;-80
2023/02/02 06:24:26;;;;;;;8.93;4.50;;;;;;;5.75;71.21;97399.25;5086098;28;20028;-80
2023/02/02 06:27:23;;;;;;;11.65;5.22;;;;;;;5.68;71.59;97405.81;5039602;28;20514;-79
2023/02/02 06:29:59;;;;;;;10.43;5.32;;;;;;;5.93;71.98;97427.69;5055317;28;20024;-80
2023/02/02 06:32:55;;;;;;;19.67;6.88;;;;;;;6.04;73.85;97442.25;5053804;28;20027;-80
2023/02/02 06:35:21;;;;;;;11.30;4.43;;;;;;;6.04;69.90;97413.03;5063675;28;20052;-80
2023/02/02 06:38:19;;;;;;;9.73;4.35;;;;;;;6.01;68.69;97371.56;5041135;28;20059;-78
2023/02/02 06:40:44;;;;;;;9.63;4.50;;;;;;;6.39;66.76;97422.88;5062583;28;20423;-76
2023/02/02 06:43:13;;;;;;;9.60;4.53;;;;;;;6.51;67.58;97422.31;5056946;28;20037;-80
2023/02/02 06:45:39;;;;;;;5.35;3.22;;;;;;;6.85;64.03;97425.06;5051761;28;20130;-79
2023/02/02 06:48:09;;;;;;;14.77;3.60;;;;;;;7.44;62.32;97443.34;5068223;28;20085;-78
2023/02/02 06:50:37;;;;;;;7.03;3.72;;;;;;;7.95;60.57;97454.84;5048283;28;20031;-79
2023/02/02 06:53:04;;;;;;;12.45;4.30;;;;;;;8.45;57.80;97458.34;5054995;28;20032;-78
2023/02/02 06:55:30;;;;;;;8.73;4.07;;;;;;;8.01;57.58;97426.09;5044425;28;20024;-76
2023/02/02 06:58:00;;;;;;;8.23;4.00;;;;;;;7.63;58.22;97420.13;5047173;28;20078;-77
2023/02/02 07:00:26;;;;;;;10.45;3.70;;;;;;;7.57;59.52;97425.78;5052147;28;20925;-74
2023/02/02 07:02:52;;;;;;;11.93;5.03;;;;;;;7.69;59.27;97410.97;5056701;28;20049;-75
2023/02/02 07:05:22;;;;;;;9.13;4.88;;;;;;;7.61;57.77;97418.50;5055106;28;20079;-77
2023/02/02 07:07:51;;;;;;;5.63;3.35;;;;;;;8.31;56.83;97436.91;5040047;28;20575;-78
2023/02/02 07:10:17;;;;;;;11.07;4.70;;;;;;;8.99;54.91;97445.53;5042186;28;20056;-79
2023/02/02 07:12:49;;;;;;;7.85;4.90;;;;;;;10.26;51.26;97473.47;5039127;28;20044;-78
2023/02/02 07:15:14;;;;;;;13.10;4.30;;;;;;;11.27;48.27;97460.69;5044051;28;20025;-78
2023/02/02 07:17:40;;;;;;;5.55;3.38;;;;;;;12.40;45.84;97465.41;5048706;28;20036;-74
2023/02/02 07:20:06;;;;;;;8.70;4.30;;;;;;;12.46;45.14;97448.88;5064589;28;20044;-74
2023/02/02 07:22:31;;;;;;;12.82;5.38;;;;;;;12.27;45.86;97432.38;5039774;28;20035;-75
2023/02/02 07:24:57;;;;;;;8.02;4.40;;;;;;;12.60;44.51;97412.16;5059639;28;20115;-76
2023/02/02 07:27:22;;;;;;;10.70;4.32;;;;;;;12.93;43.20;97415.94;5049956;28;20021;-75
2023/02/02 07:29:48;;;;;;;10.63;5.47;;;;;;;12.76;43.17;97407.41;5056265;28;20025;-76
2023/02/02 07:32:13;;;;;;;6.90;4.25;;;;;;;12.73;42.77;97403.13;5057162;28;20032;-77
2023/02/02 07:34:41;;;;;;;6.75;3.72;;;;;;;12.18;42.65;97365.97;5056092;28;20029;-77
2023/02/02 07:37:07;;;;;;;10.00;4.55;;;;;;;11.63;44.20;97342.16;5056886;28;20032;-80
2023/02/02 07:39:33;;;;;;;14.75;6.80;;;;;;;11.46;45.14;97361.22;5038879;28;20403;-79
2023/02/02 07:42:04;;;;;;;10.98;5.18;;;;;;;11.93;44.19;97374.06;5042002;28;20033;-80
2023/02/02 07:44:29;;;;;;;6.68;3.58;;;;;;;12.46;43.29;97395.22;5044955;28;20027;-78
2023/02/02 07:46:55;;;;;;;5.97;3.50;;;;;;;13.32;41.18;97395.19;5036118;28;20041;-79
2023/02/02 07:49:20;;;;;;;8.18;3.47;;;;;;;13.80;40.86;97399.50;5036753;28;20404;-79
2023/02/02 07:51:48;;;;;;;8.25;4.60;;;;;;;14.47;39.05;97386.13;5059803;28;20028;-79
2023/02/02 07:54:13;;;;;;;8.63;4.80;;;;;;;14.35;39.28;97377.22;5047893;28;20025;-81
2023/02/02 07:56:39;;;;;;;11.70;4.85;;;;;;;14.75;38.40;97379.38;5049686;28;20055;-84
2023/02/02 07:59:04;;;;;;;8.48;4.43;;;;;;;15.04;38.34;97364.41;5056292;28;20086;-85
2023/02/02 08:01:36;;;;;;;8.65;4.18;;;;;;;15.60;37.62;97378.53;5062545;28;20095;-84
2023/02/02 08:04:07;;;;;;;8.20;4.00;;;;;;;14.87;37.17;97314.59;5068155;28;20041;-84
2023/02/02 08:06:35;;;;;;;7.68;4.00;;;;;;;14.40;38.57;97314.94;5046768;28;20032;-83
2023/02/02 08:09:03;;;;;;;8.05;3.88;;;;;;;14.77;38.59;97329.81;5041535;28;20054;-83
2023/02/02 08:11:32;;;;;;;5.43;3.40;;;;;;;14.64;37.94;97269.91;5062321;28;20032;-82
2023/02/02 08:14:02;;;;;;;6.78;3.75;;;;;;;14.60;38.29;97281.88;5044156;28;20028;-81
2023/02/02 08:16:32;;;;;;;8.13;3.78;;;;;;;14.95;38.15;97268.19;5051258;28;20060;-84
2023/02/02 08:19:48;;;;;;;8.90;4.18;;;;;;;15.07;36.93;97235.66;5046430;28;20032;-85
2023/02/02 08:23:08;;;;;;;;;;;;;;;;;;;;;
2023/02/02 08:25:23;;;;;;;6.70;3.38;;;;;;;14.51;37.53;97232.38;5091552;28;20033;-85
2023/02/02 08:27:52;;;;;;;4.40;2.58;;;;;;;14.82;37.78;97289.06;5062779;28;20027;-84
2023/02/02 08:30:18;;;;;;;3.40;2.72;;;;;;;14.17;37.73;97246.84;5081024;28;20102;-84
2023/02/02 08:32:43;;;;;;;7.65;3.33;;;;;;;13.19;39.44;97236.78;5074923;28;20024;-81
2023/02/02 08:35:09;;;;;;;6.00;3.05;;;;;;;12.48;41.07;97213.56;5073691;28;20020;-82
2023/02/02 08:37:34;;;;;;;20.00;3.88;;;;;;;11.62;43.40;97219.06;5049100;28;20020;-82
2023/02/02 08:40:00;;;;;;;13.05;4.53;;;;;;;11.78;43.65;97241.16;5052345;28;20051;-82
2023/02/02 08:42:25;;;;;;;8.20;4.30;;;;;;;12.12;42.58;97261.84;5059984;28;20430;-81
2023/02/02 08:44:51;;;;;;;10.02;4.28;;;;;;;12.16;42.66;97265.16;5050537;28;20028;-80
2023/02/02 08:47:16;;;;;;;12.18;5.53;;;;;;;12.52;42.79;97298.19;5059414;28;20028;-83
2023/02/02 08:49:43;;;;;;;12.00;5.95;;;;;;;13.23;42.07;97329.56;5058492;28;20032;-77
2023/02/02 08:52:09;;;;;;;7.78;3.88;;;;;;;14.60;39.70;97349.19;5059116;28;20402;-75
2023/02/02 08:54:35;;;;;;;13.38;6.57;;;;;;;15.95;37.42;97345.84;5075536;28;20031;-76
2023/02/02 08:57:00;;;;;;;27.02;5.97;;;;;;;16.60;36.74;97349.03;5075289;28;20028;-76
2023/02/02 08:59:26;;;;;;;11.48;5.32;;;;;;;16.29;37.45;97336.50;5051798;28;20028;-76
2023/02/02 09:01:51;;;;;;;7.13;4.50;;;;;;;16.64;36.61;97344.22;5083628;28;20055;-75
2023/02/02 09:04:17;;;;;;;6.70;3.78;;;;;;;16.30;36.30;97323.88;5075327;28;20020;-77
2023/02/02 09:06:44;;;;;;;5.15;3.05;;;;;;;15.53;37.25;97289.25;5093640;28;20028;-76
2023/02/02 09:09:12;;;;;;;10.13;5.20;;;;;;;14.66;39.36;97284.06;5050299;28;20029;-77
2023/02/02 09:11:38;;;;;;;5.28;3.30;;;;;;;14.36;40.02;97290.13;5072986;28;20114;-75
2023/02/02 09:14:05;;;;;;;8.18;4.00;;;;;;;14.02;40.92;97288.41;5074806;28;20099;-77
2023/02/02 09:16:31;;;;;;;11.10;5.35;;;;;;;15.29;40.01;97341.66;5058564;28;21537;-75
2023/02/02 09:18:57;;;;;;;8.93;3.97;;;;;;;16.48;38.20;97349.25;5060356;28;20483;-76
2023/02/02 09:21:22;;;;;;;5.68;3.30;;;;;;;16.46;36.78;97302.59;5038353;28;20028;-76
2023/02/02 09:23:49;;;;;;;7.75;3.88;;;;;;;16.23;37.04;97292.03;5077802;28;20023;-76
2023/02/02 09:26:18;;;;;;;6.53;3.45;;;;;;;15.55;37.92;97268.38;5074759;28;20024;-78
2023/02/02 09:28:51;;;;;;;10.95;5.03;;;;;;;15.61;38.37;97275.94;5050474;28;20449;-77
2023/02/02 09:31:17;;;;;;;12.13;4.90;;;;;;;15.88;38.18;97275.38;5070680;28;20445;-75
2023/02/02 09:33:43;;;;;;;8.90;4.30;;;;;;;15.72;37.83;97250.72;5074992;28;20024;-77
2023/02/02 09:36:15;;;;;;;10.32;5.13;;;;;;;15.31;38.13;97242.66;5057914;28;20024;-78
2023/02/02 09:38:41;;;;;;;6.55;3.85;;;;;;;14.35;40.00;97226.53;5056439;28;20024;-77
2023/02/02 09:41:13;;;;;;;13.73;5.03;;;;;;;14.16;40.69;97223.59;5064306;28;20040;-77
2023/02/02 09:44:04;;;;;;;15.23;4.00;;;;;;;13.56;41.00;97199.81;5072940;28;20516;-77
2023/02/02 09:47:07;;;;;;;8.23;4.63;;;;;;;13.05;41.72;97181.41;5084780;28;20079;-77
2023/02/02 09:50:00;;;;;;;7.63;4.20;;;;;;;13.35;42.52;97207.72;5053376;28;20212;-75
2023/02/02 09:52:41;;;;;;;6.30;3.70;;;;;;;13.74;41.81;97221.69;5051452;28;20063;-75
2023/02/02 09:55:28;;;;;;;7.95;3.65;;;;;;;13.52;41.84;97203.72;5057959;28;20035;-76
2023/02/02 09:58:12;;;;;;;7.68;4.38;;;;;;;13.77;41.78;97208.88;5069620;28;20048;-76
2023/02/02 10:00:43;;;;;;;8.68;4.32;;;;;;;12.88;43.12;97178.31;5051550;28;20463;-75
2023/02/02 10:03:18;;;;;;;6.57;3.40;;;;;;;12.81;42.99;97185.13;5051276;28;20059;-76
2023/02/02 10:06:11;;;;;;;14.27;5.78;;;;;;;12.62;43.76;97179.44;5034731;28;20531;-77
2023/02/02 10:08:54;;;;;;;6.75;3.38;;;;;;;13.20;42.32;97189.25;5049177;28;20032;-75
2023/02/02 10:11:36;;;;;;;10.73;5.80;;;;;;;13.10;43.04;97186.47;5071299;28;20610;-76
2023/02/02 10:14:08;;;;;;;10.48;4.95;;;;;;;12.88;43.20;97172.97;5070892;28;20415;-76
2023/02/02 10:16:34;;;;;;;7.10;3.90;;;;;;;12.84;43.71;97179.53;5054501;28;20459;-76
2023/02/02 10:19:19;;;;;;;5.40;2.38;;;;;;;12.43;43.03;97164.75;5071285;28;20027;-77
2023/02/02 10:21:51;;;;;;;4.72;3.13;;;;;;;12.47;43.46;97162.69;5071195;28;20103;-77
2023/02/02 10:24:22;;;;;;;6.55;3.28;;;;;;;11.70;45.19;97155.94;5089077;28;20024;-76
2023/02/02 10:26:54;;;;;;;5.22;3.00;;;;;;;11.51;44.99;97151.97;5054234;28;20024;-76
2023/02/02 10:29:22;;;;;;;17.10;5.43;;;;;;;11.25;46.25;97149.38;5064560;28;20028;-76
2023/02/02 10:31:57;;;;;;;11.25;4.47;;;;;;;11.73;45.34;97165.56;5068783;28;20081;-75
2023/02/02 10:34:39;;;;;;;12.02;5.20;;;;;;;11.82;45.92;97164.91;5068757;28;20503;-77
2023/02/02 10:37:20;;;;;;;6.93;3.80;;;;;;;12.38;44.79;97183.03;5034190;28;20086;-76
2023/02/02 10:40:19;;;;;;;8.75;4.65;;;;;;;13.41;43.73;97206.41;5050657;28;20025;-77
2023/02/02 10:46:17;;;;;;;7.80;4.32;;;;;;;13.32;42.81;97165.00;5086465;28;20541;-77
2023/02/02 10:48:45;;;;;;;14.02;6.50;;;;;;;12.36;44.62;97147.44;5053354;28;20039;-76
2023/02/02 10:51:22;;;;;;;11.43;4.40;;;;;;;11.93;46.07;97156.97;5050910;28;20101;-76
2023/02/02 10:53:52;;;;;;;11.02;4.05;;;;;;;11.80;46.76;97164.19;5052083;28;20043;-76
2023/02/02 10:56:42;;;;;;;8.43;4.68;;;;;;;11.21;47.84;97158.56;5054043;28;20084;-74
2023/02/02 10:59:12;;;;;;;11.38;5.15;;;;;;;11.16;48.17;97162.53;5057738;28;20523;-76
2023/02/02 11:01:37;;;;;;;10.88;5.53;;;;;;;11.01;48.50;97158.28;5062518;28;20035;-77
2023/02/02 11:06:49;;;;;;;15.52;4.60;;;;;;;10.59;49.40;97138.00;5070326;28;20089;-76
2023/02/02 11:09:24;;;;;;;11.50;5.68;;;;;;;10.47;50.33;97134.34;5088635;28;20050;-75
2023/02/02 11:11:56;;;;;;;7.82;3.80;;;;;;;10.40;50.19;97138.41;5053748;28;20486;-76
2023/02/02 11:14:38;;;;;;;14.93;5.93;;;;;;;10.24;51.05;97135.06;5065250;28;20028;-76
2023/02/02 11:17:09;;;;;;;11.20;5.15;;;;;;;10.14;51.58;97134.81;5034457;28;20039;-76
2023/02/02 11:19:36;;;;;;;5.35;3.60;;;;;;;10.23;51.24;97147.56;5036153;28;20479;-76
2023/02/02 11:22:05;;;;;;;10.63;4.72;;;;;;;10.32;51.92;97140.75;5064250;28;20040;-77
2023/02/02 11:24:38;;;;;;;25.65;9.48;;;;;;;10.59;51.34;97149.56;5076539;28;20103;-76
2023/02/02 11:27:06;;;;;;;16.23;6.78;;;;;;;10.70;51.03;97140.81;5033042;28;20032;-75
2023/02/02 11:29:36;;;;;;;9.82;5.15;;;;;;;10.96;50.26;97144.34;5055929;28;20028;-76
2023/02/02 11:32:29;;;;;;;13.68;5.57;;;;;;;11.21;50.19;97163.94;5070494;28;20066;-76
2023/02/02 11:35:00;;;;;;;9.43;4.57;;;;;;;11.24;50.01;97160.19;5088050;28;20050;-76
2023/02/02 11:37:26;;;;;;;7.60;3.40;;;;;;;11.03;49.17;97142.94;5088268;28;20038;-76
2023/02/02 11:39:51;;;;;;;24.42;9.77;;;;;;;11.00;49.57;97149.38;5087910;28;20036;-76
2023/02/02 11:42:22;;;;;;;19.05;9.80;;;;;;;11.16;49.93;97157.19;5049960;28;20157;-76
2023/02/02 11:44:57;;;;;;;11.77;5.85;;;;;;;11.21;50.47;97152.34;5045363;28;20050;-77
2023/02/02 11:47:29;;;;;;;6.07;3.70;;;;;;;10.86;50.21;97128.06;5049957;28;20024;-77
2023/02/02 11:49:57;;;;;;;6.60;3.30;;;;;;;11.02;50.08;97139.41;5049724;28;20431;-77
2023/02/02 11:52:24;;;;;;;12.68;6.63;;;;;;;10.85;50.86;97126.38;5045879;28;20040;-76
2023/02/02 11:54:52;;;;;;;18.55;8.90;;;;;;;10.77;50.38;97118.00;5050282;28;20020;-77
2023/02/02 11:57:20;;;;;;;19.52;8.98;;;;;;;10.76;50.93;97100.28;5056714;28;20054;-76
2023/02/02 11:59:47;;;;;;;18.60;6.75;;;;;;;10.67;51.49;97100.91;5073888;28;20016;-76
2023/02/02 12:02:19;;;;;;;15.82;8.15;;;;;;;10.86;51.01;97107.53;5056991;28;20511;-76
2023/02/02 12:04:50;;;;;;;13.07;6.50;;;;;;;10.99;50.38;97106.66;5073584;28;20055;-75
2023/02/02 12:07:25;;;;;;;16.60;8.02;;;;;;;10.80;51.20;97107.09;5073644;28;20020;-74